createdAt,value
2019-02-28T00:00:50.471Z,24.97
2019-02-28T00:03:16.933Z,25.43
2019-02-28T00:05:43.310Z,24.17
2019-02-28T00:08:09.631Z,25.13
2019-02-28T00:10:35.948Z,24.10
2019-02-28T00:13:02.219Z,26.90
2019-02-28T00:15:29.666Z,29.30
2019-02-28T00:17:57.088Z,31.67
2019-02-28T00:20:23.370Z,28.50
2019-02-28T00:22:50.134Z,29.00
2019-02-28T00:25:16.441Z,26.97
2019-02-28T00:27:42.751Z,34.00
2019-02-28T00:30:11.573Z,37.53
2019-02-28T00:32:38.067Z,37.53
2019-02-28T00:35:05.568Z,39.07
2019-02-28T00:37:31.900Z,32.20
2019-02-28T00:39:58.201Z,29.17
2019-02-28T00:42:24.498Z,25.17
2019-02-28T00:44:50.847Z,27.60
2019-02-28T00:47:17.199Z,26.23
2019-02-28T00:49:43.499Z,25.87
2019-02-28T00:52:09.793Z,26.27
2019-02-28T00:54:36.081Z,26.77
2019-02-28T00:57:02.418Z,26.57
2019-02-28T00:59:31.691Z,22.47
2019-02-28T01:01:56.844Z,21.80
2019-02-28T01:04:23.164Z,27.43
2019-02-28T01:06:49.803Z,27.60
2019-02-28T01:09:16.122Z,26.87
2019-02-28T01:11:44.941Z,30.83
2019-02-28T01:14:10.508Z,31.40
2019-02-28T01:16:36.872Z,32.23
2019-02-28T01:19:03.362Z,31.30
2019-02-28T01:21:29.646Z,35.10
2019-02-28T01:23:55.960Z,33.43
2019-02-28T01:26:22.591Z,32.73
2019-02-28T01:28:48.900Z,28.60
2019-02-28T01:31:15.329Z,27.87
2019-02-28T01:33:41.646Z,22.83
2019-02-28T01:36:07.951Z,27.50
2019-02-28T01:38:34.565Z,27.17
2019-02-28T01:41:00.868Z,26.80
2019-02-28T01:43:28.832Z,26.43
2019-02-28T01:45:55.381Z,28.93
2019-02-28T01:48:22.676Z,27.97
2019-02-28T01:50:49.780Z,30.60
2019-02-28T01:53:18.803Z,28.83
2019-02-28T01:55:44.201Z,28.93
2019-02-28T01:58:10.491Z,27.13
2019-02-28T02:00:36.823Z,30.47
2019-02-28T02:03:03.324Z,30.67
2019-02-28T02:05:29.615Z,31.40
2019-02-28T02:07:55.929Z,34.60
2019-02-28T02:10:22.910Z,29.20
2019-02-28T02:12:50.331Z,29.77
2019-02-28T02:15:17.122Z,30.07
2019-02-28T02:17:44.329Z,37.37
2019-02-28T02:20:12.631Z,32.50
2019-02-28T02:22:40.662Z,34.07
2019-02-28T02:25:07.263Z,32.70
2019-02-28T02:27:33.571Z,33.80
2019-02-28T02:29:59.978Z,31.77
2019-02-28T02:32:26.278Z,32.10
2019-02-28T02:34:52.583Z,29.17
2019-02-28T02:37:18.902Z,30.80
2019-02-28T02:39:50.036Z,25.23
2019-02-28T02:42:13.356Z,29.63
2019-02-28T02:44:39.757Z,30.27
2019-02-28T02:47:06.087Z,26.30
2019-02-28T02:49:32.699Z,29.53
2019-02-28T02:51:58.975Z,23.23
2019-02-28T02:54:25.357Z,26.77
2019-02-28T02:56:51.662Z,33.00
2019-02-28T02:59:17.966Z,29.23
2019-02-28T03:01:44.283Z,29.83
2019-02-28T03:04:10.590Z,30.80
2019-02-28T03:06:36.907Z,34.17
2019-02-28T03:09:05.108Z,36.87
2019-02-28T03:11:31.425Z,33.53
2019-02-28T03:13:57.737Z,37.43
2019-02-28T03:16:24.397Z,34.47
2019-02-28T03:18:56.998Z,41.47
2019-02-28T03:21:18.815Z,37.10
2019-02-28T03:23:45.202Z,39.57
2019-02-28T03:26:11.431Z,43.00
2019-02-28T03:28:37.740Z,40.97
2019-02-28T03:31:11.886Z,42.57
2019-02-28T03:33:32.166Z,43.50
2019-02-28T03:35:58.442Z,43.13
2019-02-28T03:38:24.755Z,40.53
2019-02-28T03:40:51.050Z,36.23
2019-02-28T03:43:17.724Z,41.53
2019-02-28T03:45:44.044Z,33.67
2019-02-28T03:48:10.363Z,39.77
2019-02-28T03:50:36.665Z,35.80
2019-02-28T03:53:03.190Z,38.00
2019-02-28T03:55:29.599Z,36.77
2019-02-28T03:57:56.111Z,37.83
2019-02-28T04:00:23.119Z,34.93
2019-02-28T04:02:56.613Z,37.70
2019-02-28T04:05:18.047Z,36.17
2019-02-28T04:07:44.342Z,34.13
2019-02-28T04:10:11.833Z,34.63
2019-02-28T04:12:45.094Z,36.73
2019-02-28T04:15:13.579Z,34.23
2019-02-28T04:17:39.910Z,39.83
2019-02-28T04:20:06.919Z,48.67
2019-02-28T04:22:33.257Z,40.77
2019-02-28T04:24:59.565Z,40.73
2019-02-28T04:27:25.855Z,39.30
2019-02-28T04:29:52.179Z,47.33
2019-02-28T04:32:18.772Z,50.80
2019-02-28T04:34:45.743Z,46.17
2019-02-28T04:37:13.796Z,47.77
2019-02-28T04:39:40.077Z,45.17
2019-02-28T04:42:06.408Z,45.23
2019-02-28T04:44:32.715Z,40.97
2019-02-28T04:46:59.043Z,38.27
2019-02-28T04:49:25.339Z,40.93
2019-02-28T04:51:51.668Z,40.47
2019-02-28T04:54:17.960Z,39.43
2019-02-28T04:56:45.487Z,38.40
2019-02-28T04:59:12.762Z,38.80
2019-02-28T05:01:39.055Z,41.63
2019-02-28T05:04:05.696Z,40.93
2019-02-28T05:06:32.061Z,42.90
2019-02-28T05:08:58.366Z,39.47
2019-02-28T05:11:27.370Z,40.13
2019-02-28T05:13:52.800Z,39.87
2019-02-28T05:16:19.132Z,35.87
2019-02-28T05:18:45.497Z,37.80
2019-02-28T05:21:11.788Z,39.43
2019-02-28T05:23:38.391Z,42.87
2019-02-28T05:26:04.712Z,41.50
2019-02-28T05:28:31.022Z,35.57
2019-02-28T05:30:57.346Z,41.63
2019-02-28T05:33:23.655Z,40.50
2019-02-28T05:35:49.971Z,37.37
2019-02-28T05:38:20.760Z,33.33
2019-02-28T05:40:44.366Z,39.73
2019-02-28T05:43:10.661Z,34.07
2019-02-28T05:45:36.957Z,33.30
2019-02-28T05:48:04.589Z,34.37
2019-02-28T05:50:31.309Z,36.77
2019-02-28T05:52:57.670Z,32.80
2019-02-28T05:55:25.561Z,34.37
2019-02-28T05:57:52.193Z,38.83
2019-02-28T06:00:20.555Z,37.77
2019-02-28T06:02:46.877Z,38.50
2019-02-28T06:05:13.171Z,36.17
2019-02-28T06:07:39.603Z,36.57
2019-02-28T06:10:08.622Z,36.00
2019-02-28T06:12:34.965Z,36.30
2019-02-28T06:15:03.103Z,34.53
2019-02-28T06:17:30.084Z,37.90
2019-02-28T06:19:56.529Z,37.03
2019-02-28T06:22:23.142Z,32.80
2019-02-28T06:24:49.477Z,34.80
2019-02-28T06:27:15.851Z,38.57
2019-02-28T06:29:42.503Z,42.20
2019-02-28T06:32:08.830Z,43.60
2019-02-28T06:34:35.129Z,41.20
2019-02-28T06:37:03.638Z,36.10
2019-02-28T06:39:29.540Z,39.37
2019-02-28T06:41:55.891Z,42.03
2019-02-28T06:44:24.221Z,39.23
2019-02-28T06:46:50.273Z,40.20
2019-02-28T06:49:16.637Z,36.13
2019-02-28T06:51:42.929Z,31.63
2019-02-28T06:54:09.240Z,35.23
2019-02-28T06:56:35.538Z,36.50
2019-02-28T06:59:04.892Z,40.27
2019-02-28T07:01:29.956Z,37.57
2019-02-28T07:03:56.263Z,35.23
2019-02-28T07:06:22.815Z,31.73
2019-02-28T07:08:49.133Z,32.87
2019-02-28T07:11:15.414Z,34.33
2019-02-28T07:13:41.751Z,31.37
2019-02-28T07:16:07.968Z,34.27
2019-02-28T07:18:34.294Z,31.40
2019-02-28T07:21:00.606Z,33.33
2019-02-28T07:23:30.021Z,32.80
2019-02-28T07:25:55.038Z,31.43
2019-02-28T07:28:21.420Z,32.67
2019-02-28T07:30:50.370Z,33.80
2019-02-28T07:33:15.940Z,31.47
2019-02-28T07:35:42.234Z,33.70
2019-02-28T07:38:08.545Z,33.17
2019-02-28T07:40:34.848Z,36.93
2019-02-28T07:43:01.193Z,33.97
2019-02-28T07:45:29.611Z,39.23
2019-02-28T07:47:55.611Z,41.40
2019-02-28T07:50:22.118Z,42.50
2019-02-28T07:52:48.438Z,39.73
2019-02-28T07:55:16.444Z,44.13
2019-02-28T07:57:43.177Z,47.63
2019-02-28T08:00:22.414Z,42.77
2019-02-28T08:02:48.907Z,52.07
2019-02-28T08:05:15.447Z,49.67
2019-02-28T08:07:41.882Z,50.63
2019-02-28T08:10:12.790Z,50.67
2019-02-28T08:12:40.248Z,55.80
2019-02-28T08:15:10.336Z,55.10
2019-02-28T08:17:36.740Z,49.90
2019-02-28T08:20:05.580Z,49.17
2019-02-28T08:22:32.214Z,59.10
2019-02-28T08:24:58.616Z,55.30
2019-02-28T08:27:25.639Z,48.40
2019-02-28T08:29:52.666Z,56.57
2019-02-28T08:32:18.963Z,53.47
2019-02-28T08:34:46.869Z,51.30
2019-02-28T08:37:13.293Z,55.27
2019-02-28T08:39:41.143Z,48.50
2019-02-28T08:42:07.708Z,53.80
2019-02-28T08:44:34.039Z,49.87
2019-02-28T08:47:00.329Z,49.73
2019-02-28T08:49:26.645Z,52.73
2019-02-28T08:51:52.985Z,50.53
2019-02-28T08:54:19.294Z,52.13
2019-02-28T08:56:49.120Z,56.07
2019-02-28T08:59:18.519Z,56.20
2019-02-28T09:01:44.170Z,54.17
2019-02-28T09:04:09.930Z,57.77
2019-02-28T09:06:37.927Z,54.23
2019-02-28T09:09:06.964Z,53.97
2019-02-28T09:11:33.259Z,56.77
2019-02-28T09:13:59.580Z,54.90
2019-02-28T09:16:25.878Z,56.43
2019-02-28T09:18:52.297Z,55.43
2019-02-28T09:21:19.097Z,56.67
2019-02-28T09:23:45.446Z,55.77
2019-02-28T09:26:11.740Z,60.53
2019-02-28T09:28:38.090Z,57.77
2019-02-28T09:31:04.887Z,58.00
2019-02-28T09:33:32.309Z,64.30
2019-02-28T09:35:58.743Z,59.77
2019-02-28T09:38:25.451Z,58.90
2019-02-28T09:40:51.803Z,57.80
2019-02-28T09:43:18.106Z,61.30
2019-02-28T09:45:44.395Z,61.03
2019-02-28T09:48:10.766Z,60.30
2019-02-28T09:50:37.094Z,62.23
2019-02-28T09:53:03.572Z,66.33
2019-02-28T09:55:34.366Z,68.33
2019-02-28T09:57:58.006Z,64.07
2019-02-28T10:00:27.556Z,64.53
2019-02-28T10:02:54.373Z,59.97
2019-02-28T10:05:20.754Z,65.23
2019-02-28T10:07:47.319Z,66.47
2019-02-28T10:10:25.427Z,64.53
2019-02-28T10:12:51.710Z,64.00
2019-02-28T10:15:19.934Z,65.03
2019-02-28T10:17:46.321Z,65.80
2019-02-28T10:20:26.541Z,64.97
2019-02-28T10:22:49.661Z,62.00
2019-02-28T10:25:16.037Z,63.37
2019-02-28T10:27:42.555Z,66.53
2019-02-28T10:30:15.763Z,67.47
2019-02-28T10:32:40.374Z,64.57
2019-02-28T10:35:08.567Z,63.27
2019-02-28T10:37:35.685Z,62.13
2019-02-28T10:40:05.223Z,66.43
2019-02-28T10:42:31.519Z,59.20
2019-02-28T10:44:57.818Z,59.17
2019-02-28T10:47:28.148Z,64.53
2019-02-28T10:49:52.243Z,66.27
2019-02-28T10:52:18.558Z,65.30
2019-02-28T10:54:48.386Z,58.57
2019-02-28T10:57:12.943Z,58.57
2019-02-28T10:59:39.422Z,63.20
2019-02-28T11:02:06.049Z,64.23
2019-02-28T11:04:32.449Z,62.60
2019-02-28T11:06:59.336Z,69.73
2019-02-28T11:09:26.962Z,67.00
2019-02-28T11:11:53.271Z,60.23
2019-02-28T11:14:19.899Z,64.50
2019-02-28T11:16:46.394Z,67.57
2019-02-28T11:19:19.435Z,70.10
2019-02-28T11:21:45.580Z,65.23
2019-02-28T11:24:11.900Z,64.23
2019-02-28T11:26:41.260Z,66.83
2019-02-28T11:29:06.594Z,63.50
2019-02-28T11:31:32.994Z,70.80
2019-02-28T11:33:59.315Z,60.70
2019-02-28T11:36:25.760Z,64.70
2019-02-28T11:38:52.523Z,63.23
2019-02-28T11:41:20.319Z,63.17
2019-02-28T11:43:46.747Z,67.83
2019-02-28T11:46:13.767Z,65.03
2019-02-28T11:48:40.072Z,61.07
2019-02-28T11:51:06.588Z,61.70
2019-02-28T11:53:32.916Z,60.43
2019-02-28T11:55:59.269Z,69.30
2019-02-28T11:58:25.586Z,61.50
2019-02-28T12:00:51.945Z,66.87
2019-02-28T12:03:18.463Z,67.00
2019-02-28T12:05:50.171Z,67.40
2019-02-28T12:08:12.911Z,67.10
2019-02-28T12:10:39.437Z,70.43
2019-02-28T12:13:06.151Z,65.43
2019-02-28T12:15:38.214Z,72.50
2019-02-28T12:18:04.481Z,66.13
2019-02-28T12:20:31.797Z,69.60
2019-02-28T12:22:58.196Z,72.00
2019-02-28T12:25:25.205Z,66.73
2019-02-28T12:27:51.521Z,67.13
2019-02-28T12:30:25.120Z,62.67
2019-02-28T12:32:52.659Z,67.80
2019-02-28T12:35:19.310Z,58.77
2019-02-28T12:37:45.620Z,55.33
2019-02-28T12:40:15.128Z,56.13
2019-02-28T12:42:41.426Z,50.37
2019-02-28T12:45:11.534Z,54.50
2019-02-28T12:47:38.700Z,51.70
2019-02-28T12:50:09.196Z,51.17
2019-02-28T12:52:35.452Z,51.27
2019-02-28T12:55:04.050Z,45.70
2019-02-28T12:57:30.511Z,43.57
2019-02-28T12:59:56.918Z,47.80
2019-02-28T13:02:23.316Z,46.03
2019-02-28T13:04:49.635Z,47.20
2019-02-28T13:07:15.905Z,46.60
2019-02-28T13:09:42.331Z,44.70
2019-02-28T13:12:11.926Z,46.00
2019-02-28T13:14:40.295Z,45.30
2019-02-28T13:17:04.821Z,49.37
2019-02-28T13:19:31.346Z,46.13
2019-02-28T13:21:57.799Z,46.10
2019-02-28T13:24:24.315Z,45.17
2019-02-28T13:26:50.743Z,51.50
2019-02-28T13:29:17.086Z,58.37
2019-02-28T13:31:43.398Z,64.37
2019-02-28T13:34:09.794Z,65.27
2019-02-28T13:36:36.401Z,74.43
2019-02-28T13:39:04.915Z,66.77
2019-02-28T13:41:31.212Z,69.97
2019-02-28T13:43:59.468Z,69.87
2019-02-28T13:46:32.396Z,67.50
2019-02-28T13:48:53.752Z,55.97
2019-02-28T13:51:20.040Z,55.23
2019-02-28T13:53:46.376Z,54.53
2019-02-28T13:56:12.679Z,54.73
2019-02-28T13:58:38.960Z,53.27
2019-02-28T14:01:05.856Z,55.10
2019-02-28T14:03:32.244Z,53.93
2019-02-28T14:05:58.574Z,50.97
2019-02-28T14:08:25.103Z,57.33
2019-02-28T14:10:52.688Z,57.17
2019-02-28T14:13:18.993Z,51.33
2019-02-28T14:15:47.916Z,56.20
2019-02-28T14:18:15.353Z,52.90
2019-02-28T14:20:41.786Z,50.77
2019-02-28T14:23:08.509Z,47.07
2019-02-28T14:25:36.262Z,47.87
2019-02-28T14:28:03.736Z,56.27
2019-02-28T14:30:30.156Z,49.50
2019-02-28T14:32:56.533Z,50.00
2019-02-28T14:35:26.521Z,45.97
2019-02-28T14:37:55.557Z,49.03
2019-02-28T14:40:21.180Z,44.73
2019-02-28T14:42:47.485Z,50.63
2019-02-28T14:45:25.401Z,44.47
2019-02-28T14:47:56.988Z,46.30
2019-02-28T14:50:20.170Z,41.20
2019-02-28T14:52:47.700Z,39.60
2019-02-28T14:55:15.808Z,39.77
2019-02-28T14:57:42.341Z,42.07
2019-02-28T15:00:11.915Z,37.63
2019-02-28T15:02:38.396Z,37.73
2019-02-28T15:05:08.800Z,32.30
2019-02-28T15:07:38.240Z,33.87
2019-02-28T15:10:15.518Z,33.70
2019-02-28T15:12:42.120Z,31.00
2019-02-28T15:15:14.859Z,34.63
2019-02-28T15:17:42.580Z,33.00
2019-02-28T15:20:11.963Z,30.40
2019-02-28T15:22:38.304Z,17.77
2019-02-28T15:25:08.470Z,17.70
2019-02-28T15:27:36.381Z,19.23
2019-02-28T15:30:06.783Z,22.57
2019-02-28T15:32:33.095Z,22.53
2019-02-28T15:35:01.241Z,24.30
2019-02-28T15:37:30.431Z,25.37
2019-02-28T15:39:55.647Z,25.67
2019-02-28T15:42:21.968Z,26.40
2019-02-28T15:44:48.295Z,28.07
2019-02-28T15:47:14.587Z,25.37
2019-02-28T15:49:41.775Z,24.63
2019-02-28T15:52:09.358Z,21.10
2019-02-28T15:54:35.772Z,23.07
2019-02-28T15:57:02.081Z,22.40
2019-02-28T15:59:28.469Z,18.83
2019-02-28T16:01:54.757Z,20.83
2019-02-28T16:04:23.525Z,17.00
2019-02-28T16:06:56.617Z,15.60
2019-02-28T16:09:18.851Z,17.70
2019-02-28T16:11:45.547Z,15.80
2019-02-28T16:14:14.592Z,15.33
2019-02-28T16:16:40.045Z,13.13
2019-02-28T16:19:06.588Z,16.53
2019-02-28T16:21:33.302Z,13.53
2019-02-28T16:24:02.006Z,16.37
2019-02-28T16:26:27.862Z,11.50
2019-02-28T16:28:54.109Z,14.63
2019-02-28T16:31:20.505Z,13.33
2019-02-28T16:33:47.021Z,15.93
2019-02-28T16:36:13.324Z,10.77
2019-02-28T16:38:42.458Z,12.97
2019-02-28T16:41:07.838Z,15.73
2019-02-28T16:43:34.131Z,13.77
2019-02-28T16:46:00.488Z,12.50
2019-02-28T16:48:26.757Z,10.23
2019-02-28T16:50:53.825Z,11.63
2019-02-28T16:53:21.399Z,7.63
2019-02-28T16:55:47.903Z,12.70
2019-02-28T16:58:14.263Z,11.40
2019-02-28T17:00:42.450Z,11.00
2019-02-28T17:03:08.937Z,8.73
2019-02-28T17:05:35.357Z,5.83
2019-02-28T17:08:01.705Z,10.20
2019-02-28T17:10:32.692Z,9.67
2019-02-28T17:13:02.902Z,11.57
2019-02-28T17:15:32.669Z,9.37
2019-02-28T17:18:00.991Z,13.30
2019-02-28T17:20:27.327Z,11.10
2019-02-28T17:22:54.241Z,10.53
2019-02-28T17:25:21.826Z,10.57
2019-02-28T17:27:53.313Z,8.83
2019-02-28T17:30:39.887Z,8.60
2019-02-28T17:33:09.151Z,9.53
2019-02-28T17:35:34.892Z,7.93
2019-02-28T17:38:01.246Z,11.83
2019-02-28T17:40:27.755Z,12.70
2019-02-28T17:42:54.087Z,8.33
2019-02-28T17:45:22.595Z,8.80
2019-02-28T17:48:15.423Z,9.90
2019-02-28T17:50:57.835Z,10.30
2019-02-28T17:53:45.723Z,8.60
2019-02-28T17:56:31.076Z,11.07
2019-02-28T17:59:22.286Z,11.70
2019-02-28T18:02:12.209Z,12.20
2019-02-28T18:05:03.889Z,10.77
2019-02-28T18:08:08.936Z,7.87
2019-02-28T18:11:01.914Z,7.43
2019-02-28T18:13:56.897Z,10.40
2019-02-28T18:16:58.611Z,10.10
2019-02-28T18:19:47.913Z,8.13
2019-02-28T18:22:24.314Z,10.07
2019-02-28T18:25:20.612Z,6.67
2019-02-28T18:28:08.554Z,6.53
2019-02-28T18:30:55.667Z,8.73
2019-02-28T18:33:22.218Z,11.60
2019-02-28T18:35:48.725Z,6.53
2019-02-28T18:38:15.077Z,10.37
2019-02-28T18:40:41.308Z,7.03
2019-02-28T18:43:07.718Z,5.53
2019-02-28T18:45:34.572Z,6.63
2019-02-28T18:48:00.933Z,8.03
2019-02-28T18:50:27.457Z,12.47
2019-02-28T18:52:53.947Z,7.07
2019-02-28T18:55:20.376Z,7.00
2019-02-28T18:57:46.814Z,9.57
2019-02-28T19:00:16.046Z,9.50
2019-02-28T19:02:42.540Z,6.97
2019-02-28T19:05:08.985Z,5.17
2019-02-28T19:07:35.632Z,5.77
2019-02-28T19:10:03.581Z,7.33
2019-02-28T19:12:29.910Z,5.37
2019-02-28T19:14:56.235Z,6.67
2019-02-28T19:17:23.084Z,6.93
2019-02-28T19:19:49.417Z,6.37
2019-02-28T19:22:15.744Z,5.07
2019-02-28T19:24:42.076Z,6.07
2019-02-28T19:27:08.409Z,5.47
2019-02-28T19:29:34.768Z,6.77
2019-02-28T19:32:01.277Z,8.80
2019-02-28T19:34:27.550Z,8.13
2019-02-28T19:36:53.935Z,6.67
2019-02-28T19:39:20.455Z,6.77
2019-02-28T19:41:47.113Z,7.53
2019-02-28T19:44:13.660Z,7.90
2019-02-28T19:46:40.190Z,7.53
2019-02-28T19:49:06.483Z,8.47
2019-02-28T19:51:33.100Z,7.60
2019-02-28T19:53:59.579Z,8.97
2019-02-28T19:56:25.797Z,9.47
2019-02-28T19:58:52.086Z,6.63
2019-02-28T20:01:19.304Z,9.43
2019-02-28T20:03:45.822Z,5.90
2019-02-28T20:06:12.143Z,6.83
2019-02-28T20:08:38.483Z,5.90
2019-02-28T20:11:05.198Z,9.03
2019-02-28T20:13:31.758Z,10.53
2019-02-28T20:15:58.252Z,6.73
2019-02-28T20:18:24.727Z,8.30
2019-02-28T20:20:51.165Z,8.00
2019-02-28T20:23:19.108Z,7.00
2019-02-28T20:25:45.307Z,8.97
2019-02-28T20:28:11.756Z,5.30
2019-02-28T20:30:38.149Z,7.03
2019-02-28T20:33:04.883Z,7.93
2019-02-28T20:35:31.288Z,11.90
2019-02-28T20:37:57.831Z,8.33
2019-02-28T20:40:30.023Z,11.23
2019-02-28T20:42:56.436Z,10.40
2019-02-28T20:45:22.866Z,8.40
2019-02-28T20:47:49.234Z,6.83
2019-02-28T20:50:19.327Z,8.70
2019-02-28T20:52:45.746Z,6.93
2019-02-28T20:55:12.043Z,7.20
2019-02-28T20:57:38.378Z,9.03
2019-02-28T21:00:14.263Z,10.40
2019-02-28T21:02:40.592Z,8.50
2019-02-28T21:05:07.177Z,8.00
2019-02-28T21:07:33.662Z,11.17
2019-02-28T21:10:00.010Z,7.37
2019-02-28T21:12:26.322Z,10.50
2019-02-28T21:14:52.755Z,8.00
2019-02-28T21:17:19.085Z,13.07
2019-02-28T21:19:45.422Z,7.30
2019-02-28T21:22:11.749Z,11.27
2019-02-28T21:24:38.179Z,8.87
2019-02-28T21:27:04.512Z,9.67
2019-02-28T21:29:30.906Z,9.23
2019-02-28T21:31:57.274Z,8.10
2019-02-28T21:34:24.492Z,9.70
2019-02-28T21:36:52.618Z,10.50
2019-02-28T21:39:18.940Z,9.03
2019-02-28T21:41:45.583Z,9.13
2019-02-28T21:44:11.881Z,9.87
2019-02-28T21:46:38.237Z,10.60
2019-02-28T21:49:04.568Z,12.13
2019-02-28T21:51:32.084Z,10.47
2019-02-28T21:53:58.376Z,8.80
2019-02-28T21:56:24.750Z,9.23
2019-02-28T21:58:51.267Z,8.87
2019-02-28T22:01:17.652Z,11.97
2019-02-28T22:03:44.318Z,8.27
2019-02-28T22:06:10.620Z,8.97
2019-02-28T22:08:37.053Z,9.57
2019-02-28T22:11:03.373Z,10.50
2019-02-28T22:13:29.812Z,8.63
2019-02-28T22:15:56.154Z,11.30
2019-02-28T22:18:22.478Z,9.37
2019-02-28T22:20:48.910Z,9.73
2019-02-28T22:23:15.245Z,12.97
2019-02-28T22:25:41.777Z,12.67
2019-02-28T22:28:08.208Z,10.43
2019-02-28T22:30:42.532Z,11.23
2019-02-28T22:33:27.800Z,11.37
2019-02-28T22:36:11.437Z,11.33
2019-02-28T22:38:37.773Z,10.67
2019-02-28T22:41:04.100Z,12.57
2019-02-28T22:43:30.430Z,11.20
2019-02-28T22:45:58.616Z,11.93
2019-02-28T22:48:25.137Z,13.93
2019-02-28T22:50:51.568Z,11.93
2019-02-28T22:53:20.666Z,10.47
2019-02-28T22:55:47.001Z,10.10
2019-02-28T22:58:13.674Z,15.23
2019-02-28T23:01:00.599Z,10.60
2019-02-28T23:03:31.994Z,13.30
2019-02-28T23:05:58.368Z,12.87
2019-02-28T23:08:24.861Z,11.83
2019-02-28T23:10:51.395Z,11.97
2019-02-28T23:13:17.823Z,13.07
2019-02-28T23:15:44.274Z,13.63
2019-02-28T23:18:10.638Z,11.03
2019-02-28T23:20:37.331Z,11.13
2019-02-28T23:23:03.642Z,11.83
2019-02-28T23:25:29.991Z,14.50
2019-02-28T23:28:23.976Z,11.77
2019-02-28T23:31:02.690Z,12.40
2019-02-28T23:33:29.125Z,13.40
2019-02-28T23:35:55.778Z,13.37
2019-02-28T23:38:41.929Z,13.63
2019-02-28T23:41:08.389Z,12.87
2019-02-28T23:43:34.942Z,13.23
2019-02-28T23:46:03.105Z,12.77
2019-02-28T23:48:29.275Z,14.17
2019-02-28T23:50:56.578Z,14.20
2019-02-28T23:53:23.022Z,13.70
2019-02-28T23:55:49.557Z,12.27
2019-02-28T23:58:15.884Z,12.97
